sensor_id;sensor_type;location;lat;lon;timestamp;pressure;altitude;pressure_sealevel;temperature;humidity
5755;BME280;2902;42.130;24.732;2023-07-24T00:01:35;99556.47;;;27.71;46.00
5755;BME280;2902;42.130;24.732;2023-07-24T00:04:02;99560.81;;;27.72;46.01
5755;BME280;2902;42.130;24.732;2023-07-24T00:06:30;99558.09;;;27.72;46.38
5755;BME280;2902;42.130;24.732;2023-07-24T00:08:57;99562.84;;;27.66;46.73
5755;BME280;2902;42.130;24.732;2023-07-24T00:11:23;99561.03;;;27.35;47.80
5755;BME280;2902;42.130;24.732;2023-07-24T00:13:50;99564.47;;;27.40;47.34
5755;BME280;2902;42.130;24.732;2023-07-24T00:16:17;99567.13;;;27.32;47.93
5755;BME280;2902;42.130;24.732;2023-07-24T00:18:43;99570.94;;;27.17;47.71
5755;BME280;2902;42.130;24.732;2023-07-24T00:21:10;99562.44;;;27.19;47.62
5755;BME280;2902;42.130;24.732;2023-07-24T00:23:40;99560.16;;;26.94;50.12
5755;BME280;2902;42.130;24.732;2023-07-24T00:26:06;99564.94;;;27.02;50.41
5755;BME280;2902;42.130;24.732;2023-07-24T00:28:33;99565.41;;;26.77;52.87
5755;BME280;2902;42.130;24.732;2023-07-24T00:31:00;99555.13;;;26.74;55.09
5755;BME280;2902;42.130;24.732;2023-07-24T00:33:26;99560.34;;;26.70;57.25
5755;BME280;2902;42.130;24.732;2023-07-24T00:35:55;99565.88;;;26.65;57.74
5755;BME280;2902;42.130;24.732;2023-07-24T00:38:22;99562.56;;;26.68;58.89
5755;BME280;2902;42.130;24.732;2023-07-24T00:40:50;99560.25;;;26.57;61.23
5755;BME280;2902;42.130;24.732;2023-07-24T00:43:17;99564.88;;;26.43;62.83
5755;BME280;2902;42.130;24.732;2023-07-24T00:45:44;99558.97;;;26.36;63.59
5755;BME280;2902;42.130;24.732;2023-07-24T00:48:13;99555.22;;;26.32;64.13
5755;BME280;2902;42.130;24.732;2023-07-24T00:50:42;99555.53;;;26.30;64.72
5755;BME280;2902;42.130;24.732;2023-07-24T00:53:10;99552.88;;;26.25;65.30
5755;BME280;2902;42.130;24.732;2023-07-24T00:55:38;99557.94;;;26.18;66.19
5755;BME280;2902;42.130;24.732;2023-07-24T00:58:06;99571.00;;;26.16;67.06
5755;BME280;2902;42.130;24.732;2023-07-24T01:00:33;99568.59;;;26.15;68.59
5755;BME280;2902;42.130;24.732;2023-07-24T01:03:00;99560.75;;;25.90;70.26
5755;BME280;2902;42.130;24.732;2023-07-24T01:05:26;99564.72;;;25.79;71.14
5755;BME280;2902;42.130;24.732;2023-07-24T01:07:53;99569.56;;;25.82;70.89
5755;BME280;2902;42.130;24.732;2023-07-24T01:10:20;99570.41;;;25.82;70.99
5755;BME280;2902;42.130;24.732;2023-07-24T01:12:53;99568.03;;;25.76;73.76
5755;BME280;2902;42.130;24.732;2023-07-24T01:15:30;99566.56;;;25.65;74.98
5755;BME280;2902;42.130;24.732;2023-07-24T01:18:00;99569.84;;;25.62;75.84
5755;BME280;2902;42.130;24.732;2023-07-24T01:20:29;99572.78;;;25.47;77.25
5755;BME280;2902;42.130;24.732;2023-07-24T01:23:22;99577.00;;;25.34;78.42
5755;BME280;2902;42.130;24.732;2023-07-24T01:25:58;99575.81;;;25.17;79.47
5755;BME280;2902;42.130;24.732;2023-07-24T01:28:25;99583.13;;;24.92;80.79
5755;BME280;2902;42.130;24.732;2023-07-24T01:30:52;99571.63;;;25.00;81.72
5755;BME280;2902;42.130;24.732;2023-07-24T01:33:19;99588.19;;;25.04;81.34
5755;BME280;2902;42.130;24.732;2023-07-24T01:35:48;99587.09;;;24.76;83.49
5755;BME280;2902;42.130;24.732;2023-07-24T01:38:17;99581.50;;;24.58;84.81
5755;BME280;2902;42.130;24.732;2023-07-24T01:40:44;99583.38;;;24.67;84.44
5755;BME280;2902;42.130;24.732;2023-07-24T01:43:14;99581.78;;;24.61;85.69
5755;BME280;2902;42.130;24.732;2023-07-24T01:45:40;99586.63;;;24.69;85.59
5755;BME280;2902;42.130;24.732;2023-07-24T01:48:07;99587.72;;;24.68;86.75
5755;BME280;2902;42.130;24.732;2023-07-24T01:50:34;99585.63;;;24.60;87.39
5755;BME280;2902;42.130;24.732;2023-07-24T01:53:00;99590.47;;;24.63;87.92
5755;BME280;2902;42.130;24.732;2023-07-24T01:55:27;99590.44;;;24.68;87.25
5755;BME280;2902;42.130;24.732;2023-07-24T01:57:54;99593.38;;;24.72;87.82
5755;BME280;2902;42.130;24.732;2023-07-24T02:00:22;99592.69;;;24.56;88.44
5755;BME280;2902;42.130;24.732;2023-07-24T02:02:49;99584.00;;;24.54;88.99
5755;BME280;2902;42.130;24.732;2023-07-24T02:05:15;99582.75;;;24.03;92.32
5755;BME280;2902;42.130;24.732;2023-07-24T02:07:42;99587.81;;;24.15;91.91
5755;BME280;2902;42.130;24.732;2023-07-24T02:10:09;99588.06;;;24.18;92.27
5755;BME280;2902;42.130;24.732;2023-07-24T02:12:36;99582.81;;;23.88;94.19
5755;BME280;2902;42.130;24.732;2023-07-24T02:15:03;99578.47;;;23.87;95.24
5755;BME280;2902;42.130;24.732;2023-07-24T02:17:31;99583.91;;;23.87;95.82
5755;BME280;2902;42.130;24.732;2023-07-24T02:19:58;99577.66;;;23.92;95.45
5755;BME280;2902;42.130;24.732;2023-07-24T02:22:25;99588.75;;;24.00;95.21
5755;BME280;2902;42.130;24.732;2023-07-24T02:24:51;99588.22;;;23.88;96.69
5755;BME280;2902;42.130;24.732;2023-07-24T02:27:25;99589.31;;;23.92;96.98
5755;BME280;2902;42.130;24.732;2023-07-24T02:29:52;99580.91;;;23.94;97.35
5755;BME280;2902;42.130;24.732;2023-07-24T02:32:18;99586.56;;;23.97;97.59
5755;BME280;2902;42.130;24.732;2023-07-24T02:34:48;99585.50;;;23.93;97.96
5755;BME280;2902;42.130;24.732;2023-07-24T02:37:15;99583.81;;;24.02;97.26
5755;BME280;2902;42.130;24.732;2023-07-24T02:39:42;99594.13;;;24.05;97.10
5755;BME280;2902;42.130;24.732;2023-07-24T02:42:08;99591.09;;;24.12;96.84
5755;BME280;2902;42.130;24.732;2023-07-24T02:44:35;99600.09;;;24.02;97.46
5755;BME280;2902;42.130;24.732;2023-07-24T02:47:03;99599.59;;;24.00;98.15
5755;BME280;2902;42.130;24.732;2023-07-24T02:49:31;99600.63;;;24.09;98.18
5755;BME280;2902;42.130;24.732;2023-07-24T02:51:59;99595.19;;;24.09;98.43
5755;BME280;2902;42.130;24.732;2023-07-24T02:54:26;99595.72;;;24.11;98.39
5755;BME280;2902;42.130;24.732;2023-07-24T02:56:53;99587.88;;;24.10;98.16
5755;BME280;2902;42.130;24.732;2023-07-24T02:59:19;99593.03;;;24.11;98.13
5755;BME280;2902;42.130;24.732;2023-07-24T03:01:46;99599.03;;;24.03;98.19
5755;BME280;2902;42.130;24.732;2023-07-24T03:04:13;99601.16;;;24.06;97.75
5755;BME280;2902;42.130;24.732;2023-07-24T03:06:40;99600.91;;;24.08;97.81
5755;BME280;2902;42.130;24.732;2023-07-24T03:09:08;99597.34;;;24.12;97.07
5755;BME280;2902;42.130;24.732;2023-07-24T03:11:34;99601.53;;;23.95;97.20
5755;BME280;2902;42.130;24.732;2023-07-24T03:14:01;99597.56;;;23.67;97.91
5755;BME280;2902;42.130;24.732;2023-07-24T03:16:28;99599.69;;;23.75;98.75
5755;BME280;2902;42.130;24.732;2023-07-24T03:18:54;99596.91;;;23.85;98.12
5755;BME280;2902;42.130;24.732;2023-07-24T03:21:21;99594.22;;;23.85;97.84
5755;BME280;2902;42.130;24.732;2023-07-24T03:23:48;99598.81;;;23.95;97.68
5755;BME280;2902;42.130;24.732;2023-07-24T03:26:16;99606.13;;;23.99;97.23
5755;BME280;2902;42.130;24.732;2023-07-24T03:28:42;99606.91;;;24.00;97.65
5755;BME280;2902;42.130;24.732;2023-07-24T03:31:09;99597.91;;;24.09;97.27
5755;BME280;2902;42.130;24.732;2023-07-24T03:33:36;99606.00;;;24.19;96.34
5755;BME280;2902;42.130;24.732;2023-07-24T03:36:03;99600.25;;;24.26;96.39
5755;BME280;2902;42.130;24.732;2023-07-24T03:38:30;99603.16;;;24.34;96.10
5755;BME280;2902;42.130;24.732;2023-07-24T03:40:56;99603.66;;;24.41;96.10
5755;BME280;2902;42.130;24.732;2023-07-24T03:43:24;99606.41;;;24.36;95.54
5755;BME280;2902;42.130;24.732;2023-07-24T03:45:51;99612.31;;;24.43;94.97
5755;BME280;2902;42.130;24.732;2023-07-24T03:48:18;99598.13;;;24.51;93.65
5755;BME280;2902;42.130;24.732;2023-07-24T03:50:44;99605.16;;;24.62;93.77
5755;BME280;2902;42.130;24.732;2023-07-24T03:53:11;99608.31;;;24.74;93.02
5755;BME280;2902;42.130;24.732;2023-07-24T03:55:38;99603.34;;;24.81;91.29
5755;BME280;2902;42.130;24.732;2023-07-24T03:58:04;99608.69;;;24.91;90.71
5755;BME280;2902;42.130;24.732;2023-07-24T04:00:32;99606.22;;;24.95;88.97
5755;BME280;2902;42.130;24.732;2023-07-24T04:02:59;99607.63;;;24.87;89.71
5755;BME280;2902;42.130;24.732;2023-07-24T04:05:26;99623.53;;;25.04;89.09
5755;BME280;2902;42.130;24.732;2023-07-24T04:07:54;99613.31;;;25.20;88.47
5755;BME280;2902;42.130;24.732;2023-07-24T04:10:21;99605.22;;;25.62;87.85
5755;BME280;2902;42.130;24.732;2023-07-24T04:12:47;99608.50;;;25.82;86.41
5755;BME280;2902;42.130;24.732;2023-07-24T04:15:14;99609.50;;;26.10;84.49
5755;BME280;2902;42.130;24.732;2023-07-24T04:17:42;99607.59;;;26.66;81.91
5755;BME280;2902;42.130;24.732;2023-07-24T04:20:09;99627.53;;;27.25;79.63
5755;BME280;2902;42.130;24.732;2023-07-24T04:22:36;99625.34;;;27.68;77.43
5755;BME280;2902;42.130;24.732;2023-07-24T04:25:03;99633.03;;;28.28;73.91
5755;BME280;2902;42.130;24.732;2023-07-24T04:27:30;99645.97;;;28.72;70.38
5755;BME280;2902;42.130;24.732;2023-07-24T04:29:56;99645.53;;;28.78;67.75
5755;BME280;2902;42.130;24.732;2023-07-24T04:32:23;99640.13;;;28.65;68.19
5755;BME280;2902;42.130;24.732;2023-07-24T04:34:51;99641.41;;;28.32;69.71
5755;BME280;2902;42.130;24.732;2023-07-24T04:37:18;99642.09;;;28.15;70.76
5755;BME280;2902;42.130;24.732;2023-07-24T04:39:44;99648.97;;;28.13;70.55
5755;BME280;2902;42.130;24.732;2023-07-24T04:42:11;99651.75;;;28.35;70.69
5755;BME280;2902;42.130;24.732;2023-07-24T04:44:38;99654.78;;;28.91;69.58
5755;BME280;2902;42.130;24.732;2023-07-24T04:47:04;99660.09;;;29.40;65.74
5755;BME280;2902;42.130;24.732;2023-07-24T04:49:31;99668.56;;;29.61;61.58
5755;BME280;2902;42.130;24.732;2023-07-24T04:51:59;99662.78;;;29.32;61.67
5755;BME280;2902;42.130;24.732;2023-07-24T04:54:26;99658.25;;;29.27;62.69
5755;BME280;2902;42.130;24.732;2023-07-24T04:56:52;99666.88;;;29.73;61.03
5755;BME280;2902;42.130;24.732;2023-07-24T04:59:19;99678.97;;;30.45;58.74
5755;BME280;2902;42.130;24.732;2023-07-24T05:01:46;99684.94;;;31.07;56.24
5755;BME280;2902;42.130;24.732;2023-07-24T05:04:12;99669.97;;;31.50;53.90
5755;BME280;2902;42.130;24.732;2023-07-24T05:06:39;99680.13;;;31.96;53.03
5755;BME280;2902;42.130;24.732;2023-07-24T05:09:07;99675.44;;;32.66;50.83
5755;BME280;2902;42.130;24.732;2023-07-24T05:11:34;99687.47;;;33.15;49.75
5755;BME280;2902;42.130;24.732;2023-07-24T05:14:01;99691.88;;;33.61;47.15
5755;BME280;2902;42.130;24.732;2023-07-24T05:16:27;99691.06;;;33.15;48.46
5755;BME280;2902;42.130;24.732;2023-07-24T05:18:54;99690.06;;;32.99;48.83
5755;BME280;2902;42.130;24.732;2023-07-24T05:21:20;99681.50;;;32.60;50.04
5755;BME280;2902;42.130;24.732;2023-07-24T05:23:47;99677.50;;;32.28;50.78
5755;BME280;2902;42.130;24.732;2023-07-24T05:26:15;99672.72;;;31.88;52.84
5755;BME280;2902;42.130;24.732;2023-07-24T05:28:42;99678.94;;;32.05;51.79
5755;BME280;2902;42.130;24.732;2023-07-24T05:31:08;99684.59;;;32.09;51.80
5755;BME280;2902;42.130;24.732;2023-07-24T05:33:35;99683.00;;;31.70;53.60
5755;BME280;2902;42.130;24.732;2023-07-24T05:36:03;99685.81;;;31.91;52.38
5755;BME280;2902;42.130;24.732;2023-07-24T05:38:30;99694.56;;;32.42;50.71
5755;BME280;2902;42.130;24.732;2023-07-24T05:40:57;99692.69;;;32.75;49.49
5755;BME280;2902;42.130;24.732;2023-07-24T05:43:26;99694.19;;;33.26;48.32
5755;BME280;2902;42.130;24.732;2023-07-24T05:45:54;99686.59;;;33.68;47.58
5755;BME280;2902;42.130;24.732;2023-07-24T05:48:22;99695.59;;;34.13;45.50
5755;BME280;2902;42.130;24.732;2023-07-24T05:50:49;99692.34;;;34.47;44.94
5755;BME280;2902;42.130;24.732;2023-07-24T05:53:16;99691.59;;;35.01;43.73
5755;BME280;2902;42.130;24.732;2023-07-24T05:55:44;99687.28;;;35.90;40.89
5755;BME280;2902;42.130;24.732;2023-07-24T05:58:11;99690.72;;;36.52;39.23
5755;BME280;2902;42.130;24.732;2023-07-24T06:00:39;99693.84;;;36.51;39.49
5755;BME280;2902;42.130;24.732;2023-07-24T06:03:05;99677.97;;;36.48;39.25
5755;BME280;2902;42.130;24.732;2023-07-24T06:05:32;99675.44;;;36.24;38.90
5755;BME280;2902;42.130;24.732;2023-07-24T06:07:59;99669.13;;;36.23;39.64
5755;BME280;2902;42.130;24.732;2023-07-24T06:10:25;99677.81;;;36.41;39.31
5755;BME280;2902;42.130;24.732;2023-07-24T06:12:52;99675.94;;;36.64;37.53
5755;BME280;2902;42.130;24.732;2023-07-24T06:15:19;99670.41;;;37.02;36.10
5755;BME280;2902;42.130;24.732;2023-07-24T06:17:47;99667.22;;;37.00;36.20
5755;BME280;2902;42.130;24.732;2023-07-24T06:20:13;99665.97;;;36.78;36.38
5755;BME280;2902;42.130;24.732;2023-07-24T06:22:40;99665.16;;;36.78;37.42
5755;BME280;2902;42.130;24.732;2023-07-24T06:25:07;99664.44;;;36.62;36.41
5755;BME280;2902;42.130;24.732;2023-07-24T06:27:34;99657.41;;;36.49;35.57
5755;BME280;2902;42.130;24.732;2023-07-24T06:30:01;99652.53;;;36.61;35.12
5755;BME280;2902;42.130;24.732;2023-07-24T06:32:28;99639.69;;;36.00;35.59
5755;BME280;2902;42.130;24.732;2023-07-24T06:34:56;99638.84;;;35.49;35.96
5755;BME280;2902;42.130;24.732;2023-07-24T06:37:23;99644.34;;;35.34;36.53
5755;BME280;2902;42.130;24.732;2023-07-24T06:39:49;99641.16;;;35.32;36.86
5755;BME280;2902;42.130;24.732;2023-07-24T06:42:16;99637.56;;;35.47;36.09
5755;BME280;2902;42.130;24.732;2023-07-24T06:44:43;99642.53;;;35.26;36.62
5755;BME280;2902;42.130;24.732;2023-07-24T06:47:09;99624.44;;;35.13;36.43
5755;BME280;2902;42.130;24.732;2023-07-24T06:49:36;99642.41;;;35.34;35.37
5755;BME280;2902;42.130;24.732;2023-07-24T06:52:05;99640.16;;;35.55;34.51
5755;BME280;2902;42.130;24.732;2023-07-24T06:54:31;99641.88;;;35.60;33.86
5755;BME280;2902;42.130;24.732;2023-07-24T06:56:58;99635.00;;;35.38;34.30
5755;BME280;2902;42.130;24.732;2023-07-24T06:59:25;99628.69;;;34.95;35.11
5755;BME280;2902;42.130;24.732;2023-07-24T07:01:51;99644.00;;;34.92;35.65
5755;BME280;2902;42.130;24.732;2023-07-24T07:04:18;99629.81;;;34.66;36.06
5755;BME280;2902;42.130;24.732;2023-07-24T07:06:45;99632.97;;;34.92;35.64
5755;BME280;2902;42.130;24.732;2023-07-24T07:09:13;99626.13;;;35.17;35.18
5755;BME280;2902;42.130;24.732;2023-07-24T07:11:39;99625.19;;;35.56;33.78
5755;BME280;2902;42.130;24.732;2023-07-24T07:14:08;99629.00;;;35.67;33.44
5755;BME280;2902;42.130;24.732;2023-07-24T07:16:35;99631.41;;;35.84;33.22
5755;BME280;2902;42.130;24.732;2023-07-24T07:19:02;99617.41;;;35.93;33.21
5755;BME280;2902;42.130;24.732;2023-07-24T07:21:28;99609.84;;;35.43;33.68
5755;BME280;2902;42.130;24.732;2023-07-24T07:23:55;99612.97;;;35.42;34.44
5755;BME280;2902;42.130;24.732;2023-07-24T07:26:23;99611.69;;;35.24;34.49
5755;BME280;2902;42.130;24.732;2023-07-24T07:28:50;99605.72;;;34.79;34.61
5755;BME280;2902;42.130;24.732;2023-07-24T07:31:17;99613.53;;;34.89;34.14
5755;BME280;2902;42.130;24.732;2023-07-24T07:33:43;99606.81;;;35.17;33.96
5755;BME280;2902;42.130;24.732;2023-07-24T07:36:10;99604.03;;;35.48;33.22
5755;BME280;2902;42.130;24.732;2023-07-24T07:38:37;99600.72;;;35.74;32.91
5755;BME280;2902;42.130;24.732;2023-07-24T07:41:05;99597.75;;;35.98;32.48
5755;BME280;2902;42.130;24.732;2023-07-24T07:43:33;99595.00;;;35.98;32.85
5755;BME280;2902;42.130;24.732;2023-07-24T07:46:01;99590.28;;;36.17;33.59
5755;BME280;2902;42.130;24.732;2023-07-24T07:48:28;99586.03;;;36.39;33.68
5755;BME280;2902;42.130;24.732;2023-07-24T07:50:54;99586.09;;;36.61;33.81
5755;BME280;2902;42.130;24.732;2023-07-24T07:53:21;99582.38;;;36.35;33.33
5755;BME280;2902;42.130;24.732;2023-07-24T07:55:55;99583.47;;;36.30;33.27
5755;BME280;2902;42.130;24.732;2023-07-24T07:58:22;99577.28;;;36.37;34.10
5755;BME280;2902;42.130;24.732;2023-07-24T08:00:50;99571.91;;;36.44;34.13
5755;BME280;2902;42.130;24.732;2023-07-24T08:03:17;99565.78;;;36.54;34.23
5755;BME280;2902;42.130;24.732;2023-07-24T08:05:43;99575.75;;;36.58;34.25
5755;BME280;2902;42.130;24.732;2023-07-24T08:08:10;99574.94;;;36.77;33.27
5755;BME280;2902;42.130;24.732;2023-07-24T08:10:37;99577.06;;;37.06;32.90
5755;BME280;2902;42.130;24.732;2023-07-24T08:13:04;99565.75;;;36.92;32.46
5755;BME280;2902;42.130;24.732;2023-07-24T08:15:34;99572.94;;;36.96;32.25
5755;BME280;2902;42.130;24.732;2023-07-24T08:18:02;99566.94;;;37.13;32.79
5755;BME280;2902;42.130;24.732;2023-07-24T08:20:29;99565.25;;;37.32;32.44
5755;BME280;2902;42.130;24.732;2023-07-24T08:22:56;99564.91;;;37.33;32.90
5755;BME280;2902;42.130;24.732;2023-07-24T08:25:23;99560.34;;;37.44;32.26
5755;BME280;2902;42.130;24.732;2023-07-24T08:27:50;99567.72;;;37.59;32.60
5755;BME280;2902;42.130;24.732;2023-07-24T08:30:17;99573.56;;;37.80;31.84
5755;BME280;2902;42.130;24.732;2023-07-24T08:32:44;99569.66;;;37.81;31.64
5755;BME280;2902;42.130;24.732;2023-07-24T08:35:12;99569.56;;;37.78;31.30
5755;BME280;2902;42.130;24.732;2023-07-24T08:37:42;99563.88;;;37.67;32.19
5755;BME280;2902;42.130;24.732;2023-07-24T08:40:10;99558.22;;;37.60;32.20
5755;BME280;2902;42.130;24.732;2023-07-24T08:42:38;99561.53;;;37.69;31.41
5755;BME280;2902;42.130;24.732;2023-07-24T08:45:09;99552.78;;;37.67;32.00
5755;BME280;2902;42.130;24.732;2023-07-24T08:47:38;99547.00;;;37.79;31.55
5755;BME280;2902;42.130;24.732;2023-07-24T08:50:07;99549.91;;;37.86;31.55
5755;BME280;2902;42.130;24.732;2023-07-24T08:52:38;99548.81;;;37.94;31.31
5755;BME280;2902;42.130;24.732;2023-07-24T08:55:05;99545.56;;;37.89;31.40
5755;BME280;2902;42.130;24.732;2023-07-24T08:57:32;99539.88;;;37.52;31.61
5755;BME280;2902;42.130;24.732;2023-07-24T08:59:59;99540.09;;;37.66;31.67
5755;BME280;2902;42.130;24.732;2023-07-24T09:02:30;99537.47;;;37.51;31.84
5755;BME280;2902;42.130;24.732;2023-07-24T09:04:56;99527.69;;;37.60;31.68
5755;BME280;2902;42.130;24.732;2023-07-24T09:07:23;99535.91;;;37.53;33.01
5755;BME280;2902;42.130;24.732;2023-07-24T09:09:51;99530.19;;;37.65;32.47
5755;BME280;2902;42.130;24.732;2023-07-24T09:12:18;99531.56;;;37.78;32.34
5755;BME280;2902;42.130;24.732;2023-07-24T09:14:45;99529.88;;;38.00;31.61
5755;BME280;2902;42.130;24.732;2023-07-24T09:17:12;99536.50;;;38.21;31.29
5755;BME280;2902;42.130;24.732;2023-07-24T09:19:38;99530.69;;;38.33;30.50
5755;BME280;2902;42.130;24.732;2023-07-24T09:22:10;99532.03;;;38.13;30.19
5755;BME280;2902;42.130;24.732;2023-07-24T09:24:37;99524.88;;;38.12;30.65
5755;BME280;2902;42.130;24.732;2023-07-24T09:27:06;99518.50;;;38.08;30.49
5755;BME280;2902;42.130;24.732;2023-07-24T09:29:34;99515.16;;;37.96;30.39
5755;BME280;2902;42.130;24.732;2023-07-24T09:32:01;99510.91;;;37.76;30.41
5755;BME280;2902;42.130;24.732;2023-07-24T09:34:28;99509.09;;;37.61;30.30
5755;BME280;2902;42.130;24.732;2023-07-24T09:36:54;99510.16;;;37.53;30.80
5755;BME280;2902;42.130;24.732;2023-07-24T09:39:24;99505.47;;;37.31;31.43
5755;BME280;2902;42.130;24.732;2023-07-24T09:41:51;99495.16;;;37.31;30.80
5755;BME280;2902;42.130;24.732;2023-07-24T09:44:21;99502.84;;;37.15;30.50
5755;BME280;2902;42.130;24.732;2023-07-24T09:46:51;99491.22;;;37.32;30.24
5755;BME280;2902;42.130;24.732;2023-07-24T09:49:18;99490.00;;;37.56;29.74
5755;BME280;2902;42.130;24.732;2023-07-24T09:51:47;99488.22;;;36.95;30.42
5755;BME280;2902;42.130;24.732;2023-07-24T09:54:20;99468.41;;;36.93;29.84
5755;BME280;2902;42.130;24.732;2023-07-24T09:56:50;99469.31;;;37.01;30.86
5755;BME280;2902;42.130;24.732;2023-07-24T09:59:18;99461.53;;;37.10;31.14
5755;BME280;2902;42.130;24.732;2023-07-24T10:01:47;99459.34;;;37.19;29.76
5755;BME280;2902;42.130;24.732;2023-07-24T10:04:15;99456.34;;;37.31;30.04
5755;BME280;2902;42.130;24.732;2023-07-24T10:06:43;99460.69;;;37.55;29.16
5755;BME280;2902;42.130;24.732;2023-07-24T10:09:10;99467.28;;;37.73;28.40
5755;BME280;2902;42.130;24.732;2023-07-24T10:11:37;99463.91;;;37.86;28.61
5755;BME280;2902;42.130;24.732;2023-07-24T10:14:04;99451.44;;;37.73;28.98
5755;BME280;2902;42.130;24.732;2023-07-24T10:16:32;99451.13;;;37.52;29.26
5755;BME280;2902;42.130;24.732;2023-07-24T10:19:00;99451.25;;;37.59;28.62
5755;BME280;2902;42.130;24.732;2023-07-24T10:21:27;99435.56;;;37.70;28.44
5755;BME280;2902;42.130;24.732;2023-07-24T10:23:54;99422.72;;;37.59;28.58
5755;BME280;2902;42.130;24.732;2023-07-24T10:26:24;99428.41;;;37.69;27.49
5755;BME280;2902;42.130;24.732;2023-07-24T10:28:52;99421.19;;;37.61;27.25
5755;BME280;2902;42.130;24.732;2023-07-24T10:31:22;99424.78;;;37.65;28.27
5755;BME280;2902;42.130;24.732;2023-07-24T10:33:49;99418.22;;;37.80;27.05
5755;BME280;2902;42.130;24.732;2023-07-24T10:36:18;99419.63;;;37.97;27.51
5755;BME280;2902;42.130;24.732;2023-07-24T10:38:47;99401.72;;;37.91;27.56
5755;BME280;2902;42.130;24.732;2023-07-24T10:41:17;99396.75;;;38.03;27.60
5755;BME280;2902;42.130;24.732;2023-07-24T10:43:45;99405.78;;;38.00;26.18
5755;BME280;2902;42.130;24.732;2023-07-24T10:46:12;99392.28;;;37.99;25.96
5755;BME280;2902;42.130;24.732;2023-07-24T10:48:44;99386.19;;;38.16;26.11
5755;BME280;2902;42.130;24.732;2023-07-24T10:51:12;99370.78;;;37.89;26.54
5755;BME280;2902;42.130;24.732;2023-07-24T10:53:43;99369.13;;;37.84;25.58
5755;BME280;2902;42.130;24.732;2023-07-24T10:56:10;99362.13;;;37.94;25.26
5755;BME280;2902;42.130;24.732;2023-07-24T10:58:37;99353.41;;;37.95;26.08
5755;BME280;2902;42.130;24.732;2023-07-24T11:01:04;99354.75;;;38.05;28.80
5755;BME280;2902;42.130;24.732;2023-07-24T11:03:31;99350.28;;;38.00;28.67
5755;BME280;2902;42.130;24.732;2023-07-24T11:05:58;99344.41;;;38.05;27.91
5755;BME280;2902;42.130;24.732;2023-07-24T11:08:25;99342.44;;;38.06;27.55
5755;BME280;2902;42.130;24.732;2023-07-24T11:10:55;99341.97;;;38.00;26.76
5755;BME280;2902;42.130;24.732;2023-07-24T11:13:23;99335.31;;;37.39;26.33
5755;BME280;2902;42.130;24.732;2023-07-24T11:15:51;99337.09;;;36.98;28.01
5755;BME280;2902;42.130;24.732;2023-07-24T11:18:18;99335.91;;;37.25;27.34
5755;BME280;2902;42.130;24.732;2023-07-24T11:20:49;99329.13;;;37.52;26.96
5755;BME280;2902;42.130;24.732;2023-07-24T11:23:16;99324.63;;;37.70;26.05
5755;BME280;2902;42.130;24.732;2023-07-24T11:25:43;99314.81;;;37.80;27.66
5755;BME280;2902;42.130;24.732;2023-07-24T11:28:13;99313.50;;;37.67;28.11
5755;BME280;2902;42.130;24.732;2023-07-24T11:30:41;99318.19;;;37.63;27.43
5755;BME280;2902;42.130;24.732;2023-07-24T11:33:09;99323.88;;;37.73;27.14
5755;BME280;2902;42.130;24.732;2023-07-24T11:35:37;99316.28;;;37.70;26.76
5755;BME280;2902;42.130;24.732;2023-07-24T11:38:05;99315.81;;;37.61;27.53
5755;BME280;2902;42.130;24.732;2023-07-24T11:40:33;99308.72;;;37.67;27.93
5755;BME280;2902;42.130;24.732;2023-07-24T11:43:00;99308.06;;;37.14;28.51
5755;BME280;2902;42.130;24.732;2023-07-24T11:45:29;99301.13;;;37.01;28.59
5755;BME280;2902;42.130;24.732;2023-07-24T11:47:55;99295.53;;;37.24;28.24
5755;BME280;2902;42.130;24.732;2023-07-24T11:50:23;99310.72;;;37.37;28.26
5755;BME280;2902;42.130;24.732;2023-07-24T11:52:51;99294.97;;;37.45;27.79
5755;BME280;2902;42.130;24.732;2023-07-24T11:55:19;99294.69;;;37.20;28.03
5755;BME280;2902;42.130;24.732;2023-07-24T11:57:56;99297.25;;;37.36;27.58
5755;BME280;2902;42.130;24.732;2023-07-24T12:00:23;99304.69;;;37.02;26.89
5755;BME280;2902;42.130;24.732;2023-07-24T12:02:51;99295.44;;;37.17;27.10
5755;BME280;2902;42.130;24.732;2023-07-24T12:05:18;99302.31;;;37.30;26.11
5755;BME280;2902;42.130;24.732;2023-07-24T12:07:45;99292.97;;;37.12;26.81
5755;BME280;2902;42.130;24.732;2023-07-24T12:10:13;99297.41;;;36.90;25.77
5755;BME280;2902;42.130;24.732;2023-07-24T12:12:43;99289.69;;;36.51;26.28
5755;BME280;2902;42.130;24.732;2023-07-24T12:15:10;99292.16;;;36.59;26.71
5755;BME280;2902;42.130;24.732;2023-07-24T12:17:37;99282.31;;;36.84;25.49
5755;BME280;2902;42.130;24.732;2023-07-24T12:20:07;99279.13;;;36.86;26.31
5755;BME280;2902;42.130;24.732;2023-07-24T12:22:35;99276.06;;;36.91;26.29
5755;BME280;2902;42.130;24.732;2023-07-24T12:25:02;99276.56;;;37.00;25.42
5755;BME280;2902;42.130;24.732;2023-07-24T12:27:28;99277.00;;;37.02;25.62
5755;BME280;2902;42.130;24.732;2023-07-24T12:29:55;99262.38;;;37.05;26.40
5755;BME280;2902;42.130;24.732;2023-07-24T12:32:22;99264.56;;;37.18;25.87
5755;BME280;2902;42.130;24.732;2023-07-24T12:34:50;99250.41;;;37.27;26.15
5755;BME280;2902;42.130;24.732;2023-07-24T12:37:18;99248.03;;;36.96;25.79
5755;BME280;2902;42.130;24.732;2023-07-24T12:39:45;99248.13;;;37.03;25.86
5755;BME280;2902;42.130;24.732;2023-07-24T12:42:13;99249.75;;;37.07;25.96
5755;BME280;2902;42.130;24.732;2023-07-24T12:44:41;99249.91;;;37.18;26.54
5755;BME280;2902;42.130;24.732;2023-07-24T12:47:08;99239.81;;;37.03;26.15
5755;BME280;2902;42.130;24.732;2023-07-24T12:49:35;99230.50;;;37.18;24.80
5755;BME280;2902;42.130;24.732;2023-07-24T12:52:02;99238.44;;;37.19;25.24
5755;BME280;2902;42.130;24.732;2023-07-24T12:54:30;99229.75;;;37.21;25.48
5755;BME280;2902;42.130;24.732;2023-07-24T12:56:57;99230.41;;;37.11;25.70
5755;BME280;2902;42.130;24.732;2023-07-24T12:59:24;99228.25;;;37.27;25.69
5755;BME280;2902;42.130;24.732;2023-07-24T13:01:50;99224.06;;;37.40;25.03
5755;BME280;2902;42.130;24.732;2023-07-24T13:04:19;99215.78;;;37.47;25.03
5755;BME280;2902;42.130;24.732;2023-07-24T13:06:45;99220.19;;;37.48;24.67
5755;BME280;2902;42.130;24.732;2023-07-24T13:09:12;99220.56;;;37.47;24.82
5755;BME280;2902;42.130;24.732;2023-07-24T13:11:40;99216.97;;;37.46;24.89